sensor_id;sensor_type;location;lat;lon;timestamp;P1;durP1;ratioP1;P2;durP2;ratioP2
22646;SDS011;11490;42.726;23.268;2022-09-09T00:14:55;9.23;;;6.85;;
22646;SDS011;11490;42.726;23.268;2022-09-09T00:17:36;11.65;;;8.00;;
22646;SDS011;11490;42.726;23.268;2022-09-09T00:28:25;9.98;;;7.20;;
22646;SDS011;11490;42.726;23.268;2022-09-09T00:30:55;13.88;;;7.93;;
22646;SDS011;11490;42.726;23.268;2022-09-09T00:33:23;12.43;;;7.85;;
22646;SDS011;11490;42.726;23.268;2022-09-09T00:35:59;14.00;;;7.85;;
22646;SDS011;11490;42.726;23.268;2022-09-09T00:38:47;14.00;;;7.80;;
22646;SDS011;11490;42.726;23.268;2022-09-09T00:44:01;10.80;;;7.47;;
22646;SDS011;11490;42.726;23.268;2022-09-09T00:52:10;10.25;;;6.95;;
22646;SDS011;11490;42.726;23.268;2022-09-09T00:54:52;12.35;;;7.47;;
22646;SDS011;11490;42.726;23.268;2022-09-09T01:02:49;14.18;;;8.60;;
22646;SDS011;11490;42.726;23.268;2022-09-09T01:05:39;10.32;;;7.32;;
22646;SDS011;11490;42.726;23.268;2022-09-09T01:08:36;15.38;;;7.45;;
22646;SDS011;11490;42.726;23.268;2022-09-09T01:11:05;11.85;;;8.50;;
22646;SDS011;11490;42.726;23.268;2022-09-09T01:13:40;10.07;;;7.32;;
22646;SDS011;11490;42.726;23.268;2022-09-09T01:16:08;15.82;;;7.38;;
22646;SDS011;11490;42.726;23.268;2022-09-09T01:18:40;10.23;;;7.53;;
22646;SDS011;11490;42.726;23.268;2022-09-09T01:23:45;10.25;;;8.02;;
22646;SDS011;11490;42.726;23.268;2022-09-09T01:26:18;11.30;;;8.18;;
22646;SDS011;11490;42.726;23.268;2022-09-09T01:28:49;10.38;;;7.05;;
22646;SDS011;11490;42.726;23.268;2022-09-09T01:31:35;15.98;;;8.07;;
22646;SDS011;11490;42.726;23.268;2022-09-09T01:34:13;11.15;;;7.43;;
22646;SDS011;11490;42.726;23.268;2022-09-09T01:36:44;10.18;;;7.47;;
22646;SDS011;11490;42.726;23.268;2022-09-09T01:39:16;11.73;;;7.07;;
22646;SDS011;11490;42.726;23.268;2022-09-09T01:41:42;13.10;;;7.82;;
22646;SDS011;11490;42.726;23.268;2022-09-09T01:44:08;12.45;;;7.90;;
22646;SDS011;11490;42.726;23.268;2022-09-09T01:46:33;13.90;;;8.48;;
22646;SDS011;11490;42.726;23.268;2022-09-09T01:48:59;9.18;;;6.70;;
22646;SDS011;11490;42.726;23.268;2022-09-09T01:51:27;12.63;;;8.20;;
22646;SDS011;11490;42.726;23.268;2022-09-09T01:53:52;16.77;;;8.07;;
22646;SDS011;11490;42.726;23.268;2022-09-09T01:56:21;12.80;;;8.75;;
22646;SDS011;11490;42.726;23.268;2022-09-09T02:04:27;9.48;;;7.38;;
22646;SDS011;11490;42.726;23.268;2022-09-09T02:06:59;9.18;;;7.30;;
22646;SDS011;11490;42.726;23.268;2022-09-09T02:09:25;9.98;;;7.60;;
22646;SDS011;11490;42.726;23.268;2022-09-09T02:12:05;10.88;;;7.68;;
22646;SDS011;11490;42.726;23.268;2022-09-09T02:14:39;13.50;;;8.15;;
22646;SDS011;11490;42.726;23.268;2022-09-09T02:17:10;11.10;;;7.55;;
22646;SDS011;11490;42.726;23.268;2022-09-09T02:19:39;10.73;;;7.68;;
22646;SDS011;11490;42.726;23.268;2022-09-09T02:22:11;10.85;;;8.60;;
22646;SDS011;11490;42.726;23.268;2022-09-09T02:24:37;11.55;;;7.68;;
22646;SDS011;11490;42.726;23.268;2022-09-09T02:27:04;11.32;;;8.48;;
22646;SDS011;11490;42.726;23.268;2022-09-09T02:29:34;9.82;;;7.25;;
22646;SDS011;11490;42.726;23.268;2022-09-09T02:32:05;11.95;;;7.50;;
22646;SDS011;11490;42.726;23.268;2022-09-09T02:34:34;10.30;;;7.72;;
22646;SDS011;11490;42.726;23.268;2022-09-09T02:37:05;10.65;;;7.30;;
22646;SDS011;11490;42.726;23.268;2022-09-09T02:39:33;10.70;;;7.72;;
22646;SDS011;11490;42.726;23.268;2022-09-09T02:41:58;10.43;;;7.45;;
22646;SDS011;11490;42.726;23.268;2022-09-09T02:44:24;11.73;;;8.05;;
22646;SDS011;11490;42.726;23.268;2022-09-09T02:52:30;11.45;;;7.70;;
22646;SDS011;11490;42.726;23.268;2022-09-09T02:55:37;11.65;;;8.23;;
22646;SDS011;11490;42.726;23.268;2022-09-09T02:58:08;12.52;;;8.52;;
22646;SDS011;11490;42.726;23.268;2022-09-09T03:00:37;15.20;;;8.15;;
22646;SDS011;11490;42.726;23.268;2022-09-09T03:03:03;13.38;;;8.63;;
22646;SDS011;11490;42.726;23.268;2022-09-09T03:05:29;10.07;;;8.20;;
22646;SDS011;11490;42.726;23.268;2022-09-09T03:07:55;11.27;;;8.82;;
22646;SDS011;11490;42.726;23.268;2022-09-09T03:10:20;13.60;;;8.40;;
22646;SDS011;11490;42.726;23.268;2022-09-09T03:12:46;10.20;;;7.95;;
22646;SDS011;11490;42.726;23.268;2022-09-09T03:15:11;12.40;;;9.13;;
22646;SDS011;11490;42.726;23.268;2022-09-09T03:17:36;12.13;;;9.10;;
22646;SDS011;11490;42.726;23.268;2022-09-09T03:20:03;11.38;;;7.78;;
22646;SDS011;11490;42.726;23.268;2022-09-09T03:22:29;10.60;;;8.70;;
22646;SDS011;11490;42.726;23.268;2022-09-09T03:24:54;12.20;;;8.75;;
22646;SDS011;11490;42.726;23.268;2022-09-09T03:27:19;13.60;;;9.00;;
22646;SDS011;11490;42.726;23.268;2022-09-09T03:29:45;9.73;;;7.88;;
22646;SDS011;11490;42.726;23.268;2022-09-09T03:32:11;18.17;;;8.32;;
22646;SDS011;11490;42.726;23.268;2022-09-09T03:34:37;10.10;;;8.65;;
22646;SDS011;11490;42.726;23.268;2022-09-09T03:37:05;18.45;;;9.32;;
22646;SDS011;11490;42.726;23.268;2022-09-09T03:39:31;12.90;;;8.38;;
22646;SDS011;11490;42.726;23.268;2022-09-09T03:41:56;11.60;;;8.98;;
22646;SDS011;11490;42.726;23.268;2022-09-09T03:44:22;12.77;;;8.23;;
22646;SDS011;11490;42.726;23.268;2022-09-09T03:46:47;10.68;;;8.25;;
22646;SDS011;11490;42.726;23.268;2022-09-09T03:49:13;10.25;;;8.30;;
22646;SDS011;11490;42.726;23.268;2022-09-09T03:51:38;11.25;;;8.85;;
22646;SDS011;11490;42.726;23.268;2022-09-09T03:54:05;13.95;;;8.48;;
22646;SDS011;11490;42.726;23.268;2022-09-09T03:56:33;15.38;;;8.95;;
22646;SDS011;11490;42.726;23.268;2022-09-09T03:58:59;10.82;;;8.18;;
22646;SDS011;11490;42.726;23.268;2022-09-09T04:01:24;13.35;;;8.95;;
22646;SDS011;11490;42.726;23.268;2022-09-09T04:03:49;12.60;;;9.23;;
22646;SDS011;11490;42.726;23.268;2022-09-09T04:06:15;12.30;;;8.25;;
22646;SDS011;11490;42.726;23.268;2022-09-09T04:08:46;10.48;;;8.57;;
22646;SDS011;11490;42.726;23.268;2022-09-09T04:11:13;12.85;;;9.32;;
22646;SDS011;11490;42.726;23.268;2022-09-09T04:13:40;12.40;;;9.13;;
22646;SDS011;11490;42.726;23.268;2022-09-09T04:16:06;13.52;;;9.55;;
22646;SDS011;11490;42.726;23.268;2022-09-09T04:18:34;15.57;;;8.77;;
22646;SDS011;11490;42.726;23.268;2022-09-09T04:20:59;12.45;;;9.07;;
22646;SDS011;11490;42.726;23.268;2022-09-09T04:23:29;15.45;;;9.10;;
22646;SDS011;11490;42.726;23.268;2022-09-09T04:26:01;12.07;;;8.98;;
22646;SDS011;11490;42.726;23.268;2022-09-09T04:28:29;15.23;;;8.68;;
22646;SDS011;11490;42.726;23.268;2022-09-09T04:30:56;14.40;;;10.90;;
22646;SDS011;11490;42.726;23.268;2022-09-09T04:33:25;17.92;;;9.07;;
22646;SDS011;11490;42.726;23.268;2022-09-09T04:35:53;17.95;;;11.77;;
22646;SDS011;11490;42.726;23.268;2022-09-09T04:38:20;47.17;;;31.45;;
22646;SDS011;11490;42.726;23.268;2022-09-09T04:40:48;88.60;;;56.88;;
22646;SDS011;11490;42.726;23.268;2022-09-09T04:43:16;53.80;;;36.90;;
22646;SDS011;11490;42.726;23.268;2022-09-09T04:45:43;37.22;;;25.30;;
22646;SDS011;11490;42.726;23.268;2022-09-09T04:48:09;28.80;;;20.23;;
22646;SDS011;11490;42.726;23.268;2022-09-09T04:50:34;18.98;;;12.63;;
22646;SDS011;11490;42.726;23.268;2022-09-09T04:53:00;15.48;;;11.55;;
22646;SDS011;11490;42.726;23.268;2022-09-09T04:55:27;18.45;;;10.20;;
22646;SDS011;11490;42.726;23.268;2022-09-09T04:57:52;17.30;;;12.02;;
22646;SDS011;11490;42.726;23.268;2022-09-09T05:00:19;20.90;;;11.32;;
22646;SDS011;11490;42.726;23.268;2022-09-09T05:02:45;14.60;;;10.50;;
22646;SDS011;11490;42.726;23.268;2022-09-09T05:05:11;15.80;;;9.50;;
22646;SDS011;11490;42.726;23.268;2022-09-09T05:07:37;16.55;;;9.07;;
22646;SDS011;11490;42.726;23.268;2022-09-09T05:10:02;14.35;;;9.60;;
22646;SDS011;11490;42.726;23.268;2022-09-09T05:12:30;15.90;;;10.57;;
22646;SDS011;11490;42.726;23.268;2022-09-09T05:14:56;13.52;;;9.63;;
22646;SDS011;11490;42.726;23.268;2022-09-09T05:17:21;15.18;;;10.05;;
22646;SDS011;11490;42.726;23.268;2022-09-09T05:19:47;15.27;;;11.43;;
22646;SDS011;11490;42.726;23.268;2022-09-09T05:22:13;19.38;;;10.70;;
22646;SDS011;11490;42.726;23.268;2022-09-09T05:24:42;17.52;;;10.68;;
22646;SDS011;11490;42.726;23.268;2022-09-09T05:27:09;17.63;;;11.02;;
22646;SDS011;11490;42.726;23.268;2022-09-09T05:29:37;14.55;;;9.45;;
22646;SDS011;11490;42.726;23.268;2022-09-09T05:32:03;18.23;;;11.05;;
22646;SDS011;11490;42.726;23.268;2022-09-09T05:34:29;15.98;;;10.30;;
22646;SDS011;11490;42.726;23.268;2022-09-09T05:36:54;15.02;;;9.70;;
22646;SDS011;11490;42.726;23.268;2022-09-09T05:39:19;15.73;;;11.05;;
22646;SDS011;11490;42.726;23.268;2022-09-09T05:41:45;16.02;;;9.43;;
22646;SDS011;11490;42.726;23.268;2022-09-09T05:44:10;15.40;;;9.63;;
22646;SDS011;11490;42.726;23.268;2022-09-09T05:46:36;13.35;;;9.75;;
22646;SDS011;11490;42.726;23.268;2022-09-09T05:49:02;19.30;;;10.73;;
22646;SDS011;11490;42.726;23.268;2022-09-09T05:51:28;16.45;;;10.75;;
22646;SDS011;11490;42.726;23.268;2022-09-09T05:53:57;12.90;;;10.02;;
22646;SDS011;11490;42.726;23.268;2022-09-09T05:56:28;13.38;;;10.15;;
22646;SDS011;11490;42.726;23.268;2022-09-09T05:58:54;12.63;;;10.00;;
22646;SDS011;11490;42.726;23.268;2022-09-09T06:01:22;15.10;;;10.80;;
22646;SDS011;11490;42.726;23.268;2022-09-09T06:03:50;15.93;;;9.63;;
22646;SDS011;11490;42.726;23.268;2022-09-09T06:06:17;12.82;;;10.10;;
22646;SDS011;11490;42.726;23.268;2022-09-09T06:08:48;13.10;;;10.27;;
22646;SDS011;11490;42.726;23.268;2022-09-09T06:11:17;12.80;;;9.77;;
22646;SDS011;11490;42.726;23.268;2022-09-09T06:13:44;19.60;;;10.63;;
22646;SDS011;11490;42.726;23.268;2022-09-09T06:16:11;10.85;;;9.10;;
22646;SDS011;11490;42.726;23.268;2022-09-09T06:18:39;13.90;;;10.95;;
22646;SDS011;11490;42.726;23.268;2022-09-09T06:21:06;16.70;;;9.63;;
22646;SDS011;11490;42.726;23.268;2022-09-09T06:23:34;14.05;;;9.82;;
22646;SDS011;11490;42.726;23.268;2022-09-09T06:28:34;17.77;;;9.93;;
22646;SDS011;11490;42.726;23.268;2022-09-09T06:31:01;11.20;;;8.05;;
22646;SDS011;11490;42.726;23.268;2022-09-09T06:33:34;16.30;;;9.27;;
22646;SDS011;11490;42.726;23.268;2022-09-09T06:36:02;11.27;;;8.27;;
22646;SDS011;11490;42.726;23.268;2022-09-09T06:38:28;18.23;;;8.70;;
22646;SDS011;11490;42.726;23.268;2022-09-09T06:40:56;12.57;;;8.98;;
22646;SDS011;11490;42.726;23.268;2022-09-09T06:43:27;22.23;;;11.93;;
22646;SDS011;11490;42.726;23.268;2022-09-09T06:46:00;18.95;;;11.05;;
22646;SDS011;11490;42.726;23.268;2022-09-09T06:48:28;17.08;;;12.10;;
22646;SDS011;11490;42.726;23.268;2022-09-09T06:51:06;10.25;;;8.05;;
22646;SDS011;11490;42.726;23.268;2022-09-09T06:53:34;14.98;;;9.40;;
22646;SDS011;11490;42.726;23.268;2022-09-09T06:58:42;12.40;;;8.45;;
22646;SDS011;11490;42.726;23.268;2022-09-09T07:01:09;17.67;;;8.75;;
22646;SDS011;11490;42.726;23.268;2022-09-09T07:03:37;11.43;;;8.63;;
22646;SDS011;11490;42.726;23.268;2022-09-09T07:06:04;15.63;;;9.88;;
22646;SDS011;11490;42.726;23.268;2022-09-09T07:08:29;26.38;;;13.07;;
22646;SDS011;11490;42.726;23.268;2022-09-09T07:11:01;10.43;;;8.20;;
22646;SDS011;11490;42.726;23.268;2022-09-09T07:13:29;10.93;;;7.93;;
22646;SDS011;11490;42.726;23.268;2022-09-09T07:16:02;14.10;;;8.75;;
22646;SDS011;11490;42.726;23.268;2022-09-09T07:18:28;11.88;;;7.30;;
22646;SDS011;11490;42.726;23.268;2022-09-09T07:20:55;17.90;;;8.82;;
22646;SDS011;11490;42.726;23.268;2022-09-09T07:23:24;12.38;;;7.68;;
22646;SDS011;11490;42.726;23.268;2022-09-09T07:25:49;9.85;;;7.50;;
22646;SDS011;11490;42.726;23.268;2022-09-09T07:28:15;11.52;;;8.05;;
22646;SDS011;11490;42.726;23.268;2022-09-09T07:30:42;11.65;;;7.45;;
22646;SDS011;11490;42.726;23.268;2022-09-09T07:33:07;13.43;;;7.20;;
22646;SDS011;11490;42.726;23.268;2022-09-09T07:35:34;11.02;;;6.97;;
22646;SDS011;11490;42.726;23.268;2022-09-09T07:38:02;12.05;;;7.38;;
22646;SDS011;11490;42.726;23.268;2022-09-09T07:40:28;9.57;;;6.15;;
22646;SDS011;11490;42.726;23.268;2022-09-09T07:42:55;10.02;;;6.78;;
22646;SDS011;11490;42.726;23.268;2022-09-09T07:45:21;7.50;;;5.35;;
22646;SDS011;11490;42.726;23.268;2022-09-09T07:47:46;9.02;;;6.50;;
22646;SDS011;11490;42.726;23.268;2022-09-09T07:50:13;7.57;;;5.90;;
22646;SDS011;11490;42.726;23.268;2022-09-09T07:52:38;6.95;;;5.60;;
22646;SDS011;11490;42.726;23.268;2022-09-09T07:55:03;8.73;;;6.13;;
22646;SDS011;11490;42.726;23.268;2022-09-09T07:57:29;13.15;;;5.80;;
22646;SDS011;11490;42.726;23.268;2022-09-09T07:59:58;6.53;;;4.95;;
22646;SDS011;11490;42.726;23.268;2022-09-09T08:02:24;8.40;;;5.25;;
22646;SDS011;11490;42.726;23.268;2022-09-09T08:04:50;9.48;;;5.25;;
22646;SDS011;11490;42.726;23.268;2022-09-09T08:07:16;7.03;;;4.93;;
22646;SDS011;11490;42.726;23.268;2022-09-09T08:09:42;7.68;;;5.30;;
22646;SDS011;11490;42.726;23.268;2022-09-09T08:12:11;6.60;;;5.10;;
22646;SDS011;11490;42.726;23.268;2022-09-09T08:14:37;9.00;;;5.65;;
22646;SDS011;11490;42.726;23.268;2022-09-09T08:17:04;8.20;;;5.55;;
22646;SDS011;11490;42.726;23.268;2022-09-09T08:19:29;7.28;;;5.03;;
22646;SDS011;11490;42.726;23.268;2022-09-09T08:21:55;8.68;;;5.70;;
22646;SDS011;11490;42.726;23.268;2022-09-09T08:24:20;9.32;;;6.28;;
22646;SDS011;11490;42.726;23.268;2022-09-09T08:26:47;11.98;;;6.03;;
22646;SDS011;11490;42.726;23.268;2022-09-09T08:29:16;14.07;;;5.22;;
22646;SDS011;11490;42.726;23.268;2022-09-09T08:31:47;7.38;;;5.57;;
22646;SDS011;11490;42.726;23.268;2022-09-09T08:34:14;6.57;;;4.90;;
22646;SDS011;11490;42.726;23.268;2022-09-09T08:36:41;7.80;;;5.10;;
22646;SDS011;11490;42.726;23.268;2022-09-09T08:39:11;14.82;;;5.60;;
22646;SDS011;11490;42.726;23.268;2022-09-09T08:54:50;6.57;;;5.20;;
22646;SDS011;11490;42.726;23.268;2022-09-09T08:57:21;7.68;;;5.32;;
22646;SDS011;11490;42.726;23.268;2022-09-09T08:59:51;6.38;;;4.70;;
22646;SDS011;11490;42.726;23.268;2022-09-09T09:10:15;6.97;;;5.13;;
22646;SDS011;11490;42.726;23.268;2022-09-09T09:13:07;7.78;;;5.32;;
22646;SDS011;11490;42.726;23.268;2022-09-09T09:15:38;8.77;;;5.47;;
22646;SDS011;11490;42.726;23.268;2022-09-09T09:18:05;9.18;;;4.55;;
22646;SDS011;11490;42.726;23.268;2022-09-09T09:21:20;6.47;;;4.20;;
22646;SDS011;11490;42.726;23.268;2022-09-09T09:26:25;7.35;;;5.32;;
22646;SDS011;11490;42.726;23.268;2022-09-09T09:28:55;6.05;;;4.60;;
22646;SDS011;11490;42.726;23.268;2022-09-09T09:31:23;8.43;;;5.63;;
22646;SDS011;11490;42.726;23.268;2022-09-09T09:33:55;8.35;;;4.95;;
22646;SDS011;11490;42.726;23.268;2022-09-09T09:36:23;7.05;;;5.03;;
22646;SDS011;11490;42.726;23.268;2022-09-09T09:38:58;8.73;;;5.90;;
22646;SDS011;11490;42.726;23.268;2022-09-09T09:44:02;9.10;;;5.03;;
22646;SDS011;11490;42.726;23.268;2022-09-09T09:46:29;7.05;;;5.50;;
22646;SDS011;11490;42.726;23.268;2022-09-09T09:49:02;9.50;;;5.18;;
22646;SDS011;11490;42.726;23.268;2022-09-09T09:51:30;7.72;;;5.43;;
22646;SDS011;11490;42.726;23.268;2022-09-09T09:57:07;7.68;;;5.15;;
22646;SDS011;11490;42.726;23.268;2022-09-09T09:59:37;8.50;;;5.40;;
22646;SDS011;11490;42.726;23.268;2022-09-09T10:02:31;6.97;;;5.07;;
22646;SDS011;11490;42.726;23.268;2022-09-09T10:05:03;6.20;;;5.05;;
22646;SDS011;11490;42.726;23.268;2022-09-09T10:07:31;8.80;;;5.50;;
22646;SDS011;11490;42.726;23.268;2022-09-09T10:09:58;9.55;;;5.32;;
22646;SDS011;11490;42.726;23.268;2022-09-09T10:25:48;7.95;;;6.32;;
22646;SDS011;11490;42.726;23.268;2022-09-09T10:36:18;11.75;;;5.70;;
22646;SDS011;11490;42.726;23.268;2022-09-09T10:48:14;9.82;;;5.85;;
22646;SDS011;11490;42.726;23.268;2022-09-09T10:50:44;8.10;;;6.25;;
22646;SDS011;11490;42.726;23.268;2022-09-09T10:53:17;9.23;;;6.05;;
22646;SDS011;11490;42.726;23.268;2022-09-09T10:55:56;11.25;;;6.47;;
22646;SDS011;11490;42.726;23.268;2022-09-09T10:58:28;9.00;;;5.80;;
22646;SDS011;11490;42.726;23.268;2022-09-09T11:01:00;9.55;;;6.38;;
22646;SDS011;11490;42.726;23.268;2022-09-09T11:03:35;9.40;;;5.70;;
22646;SDS011;11490;42.726;23.268;2022-09-09T11:06:06;7.68;;;5.78;;
22646;SDS011;11490;42.726;23.268;2022-09-09T11:08:38;10.45;;;5.80;;
22646;SDS011;11490;42.726;23.268;2022-09-09T11:19:03;7.43;;;5.65;;
22646;SDS011;11490;42.726;23.268;2022-09-09T11:21:37;8.25;;;5.95;;
22646;SDS011;11490;42.726;23.268;2022-09-09T11:24:10;11.55;;;6.05;;
22646;SDS011;11490;42.726;23.268;2022-09-09T11:26:42;8.82;;;6.43;;
22646;SDS011;11490;42.726;23.268;2022-09-09T11:42:24;8.80;;;5.28;;
22646;SDS011;11490;42.726;23.268;2022-09-09T11:44:50;7.63;;;5.88;;
22646;SDS011;11490;42.726;23.268;2022-09-09T11:47:23;9.45;;;5.43;;
22646;SDS011;11490;42.726;23.268;2022-09-09T11:49:55;11.55;;;6.30;;
22646;SDS011;11490;42.726;23.268;2022-09-09T11:52:37;10.23;;;6.13;;
22646;SDS011;11490;42.726;23.268;2022-09-09T11:55:08;6.55;;;5.55;;
22646;SDS011;11490;42.726;23.268;2022-09-09T11:57:38;7.90;;;6.32;;
22646;SDS011;11490;42.726;23.268;2022-09-09T12:00:04;8.45;;;5.90;;
22646;SDS011;11490;42.726;23.268;2022-09-09T12:02:31;7.45;;;5.88;;
22646;SDS011;11490;42.726;23.268;2022-09-09T12:07:35;7.63;;;5.85;;
22646;SDS011;11490;42.726;23.268;2022-09-09T12:12:54;10.10;;;5.97;;
22646;SDS011;11490;42.726;23.268;2022-09-09T12:15:27;8.18;;;6.00;;
22646;SDS011;11490;42.726;23.268;2022-09-09T12:17:55;11.05;;;6.10;;
22646;SDS011;11490;42.726;23.268;2022-09-09T12:20:38;10.73;;;6.43;;
22646;SDS011;11490;42.726;23.268;2022-09-09T12:29:25;9.85;;;6.57;;
22646;SDS011;11490;42.726;23.268;2022-09-09T12:34:40;11.80;;;6.50;;
22646;SDS011;11490;42.726;23.268;2022-09-09T12:37:23;11.23;;;7.05;;
22646;SDS011;11490;42.726;23.268;2022-09-09T12:39:58;8.88;;;6.60;;
22646;SDS011;11490;42.726;23.268;2022-09-09T12:42:44;9.35;;;6.22;;
22646;SDS011;11490;42.726;23.268;2022-09-09T12:45:43;9.48;;;6.72;;
22646;SDS011;11490;42.726;23.268;2022-09-09T12:48:09;10.10;;;6.07;;
22646;SDS011;11490;42.726;23.268;2022-09-09T12:50:50;7.53;;;5.78;;
22646;SDS011;11490;42.726;23.268;2022-09-09T12:53:22;15.10;;;6.53;;
22646;SDS011;11490;42.726;23.268;2022-09-09T12:55:56;8.52;;;5.22;;
22646;SDS011;11490;42.726;23.268;2022-09-09T12:58:24;10.05;;;5.55;;
22646;SDS011;11490;42.726;23.268;2022-09-09T13:00:53;8.18;;;3.65;;
22646;SDS011;11490;42.726;23.268;2022-09-09T13:03:23;6.47;;;4.68;;
22646;SDS011;11490;42.726;23.268;2022-09-09T13:05:52;5.53;;;3.80;;
22646;SDS011;11490;42.726;23.268;2022-09-09T13:08:19;5.68;;;4.00;;
22646;SDS011;11490;42.726;23.268;2022-09-09T13:10:51;7.15;;;4.05;;
22646;SDS011;11490;42.726;23.268;2022-09-09T13:13:34;10.23;;;4.75;;
22646;SDS011;11490;42.726;23.268;2022-09-09T13:16:03;6.85;;;4.40;;
22646;SDS011;11490;42.726;23.268;2022-09-09T13:18:33;8.60;;;4.10;;
22646;SDS011;11490;42.726;23.268;2022-09-09T13:21:02;7.75;;;4.03;;
22646;SDS011;11490;42.726;23.268;2022-09-09T13:23:32;11.10;;;3.92;;
22646;SDS011;11490;42.726;23.268;2022-09-09T13:26:00;5.70;;;3.80;;
22646;SDS011;11490;42.726;23.268;2022-09-09T13:28:29;11.65;;;4.85;;
22646;SDS011;11490;42.726;23.268;2022-09-09T13:31:05;6.97;;;4.15;;
22646;SDS011;11490;42.726;23.268;2022-09-09T13:33:45;7.03;;;4.22;;
22646;SDS011;11490;42.726;23.268;2022-09-09T13:36:11;5.45;;;3.70;;
22646;SDS011;11490;42.726;23.268;2022-09-09T13:39:01;8.45;;;4.50;;
22646;SDS011;11490;42.726;23.268;2022-09-09T13:41:36;6.43;;;4.30;;
22646;SDS011;11490;42.726;23.268;2022-09-09T13:44:14;6.47;;;3.88;;
22646;SDS011;11490;42.726;23.268;2022-09-09T13:46:45;7.70;;;4.60;;
22646;SDS011;11490;42.726;23.268;2022-09-09T13:54:11;6.47;;;4.63;;
22646;SDS011;11490;42.726;23.268;2022-09-09T13:56:37;8.55;;;4.32;;
22646;SDS011;11490;42.726;23.268;2022-09-09T13:59:05;15.32;;;9.35;;
22646;SDS011;11490;42.726;23.268;2022-09-09T14:01:34;7.78;;;5.65;;
22646;SDS011;11490;42.726;23.268;2022-09-09T14:04:00;6.70;;;4.72;;
22646;SDS011;11490;42.726;23.268;2022-09-09T14:06:25;8.45;;;5.13;;
22646;SDS011;11490;42.726;23.268;2022-09-09T14:08:50;6.63;;;4.38;;
22646;SDS011;11490;42.726;23.268;2022-09-09T14:11:17;11.38;;;4.38;;
22646;SDS011;11490;42.726;23.268;2022-09-09T14:13:43;6.65;;;4.55;;
22646;SDS011;11490;42.726;23.268;2022-09-09T14:16:09;5.30;;;3.63;;
22646;SDS011;11490;42.726;23.268;2022-09-09T14:18:34;9.65;;;4.20;;
22646;SDS011;11490;42.726;23.268;2022-09-09T14:21:00;6.60;;;4.13;;
22646;SDS011;11490;42.726;23.268;2022-09-09T14:23:27;7.60;;;4.30;;
22646;SDS011;11490;42.726;23.268;2022-09-09T14:25:54;6.05;;;3.90;;
22646;SDS011;11490;42.726;23.268;2022-09-09T14:28:20;8.55;;;3.85;;
22646;SDS011;11490;42.726;23.268;2022-09-09T14:30:45;8.77;;;4.00;;
22646;SDS011;11490;42.726;23.268;2022-09-09T14:33:12;6.55;;;4.15;;
22646;SDS011;11490;42.726;23.268;2022-09-09T14:35:39;7.25;;;3.90;;
22646;SDS011;11490;42.726;23.268;2022-09-09T14:38:06;9.05;;;4.35;;
22646;SDS011;11490;42.726;23.268;2022-09-09T14:40:33;9.00;;;4.15;;
22646;SDS011;11490;42.726;23.268;2022-09-09T14:42:59;8.73;;;4.65;;
22646;SDS011;11490;42.726;23.268;2022-09-09T14:45:25;6.85;;;4.43;;
22646;SDS011;11490;42.726;23.268;2022-09-09T14:47:51;6.78;;;4.20;;
22646;SDS011;11490;42.726;23.268;2022-09-09T14:50:18;11.45;;;5.30;;
22646;SDS011;11490;42.726;23.268;2022-09-09T14:52:44;7.43;;;4.65;;
22646;SDS011;11490;42.726;23.268;2022-09-09T14:55:09;8.90;;;5.15;;
22646;SDS011;11490;42.726;23.268;2022-09-09T14:57:36;13.25;;;6.65;;
22646;SDS011;11490;42.726;23.268;2022-09-09T15:00:04;10.35;;;5.80;;
22646;SDS011;11490;42.726;23.268;2022-09-09T15:02:30;9.63;;;5.63;;
22646;SDS011;11490;42.726;23.268;2022-09-09T15:04:56;8.90;;;5.55;;
22646;SDS011;11490;42.726;23.268;2022-09-09T15:07:24;8.82;;;6.22;;
22646;SDS011;11490;42.726;23.268;2022-09-09T15:09:50;11.30;;;6.53;;
22646;SDS011;11490;42.726;23.268;2022-09-09T15:12:16;15.73;;;5.05;;
22646;SDS011;11490;42.726;23.268;2022-09-09T15:14:44;6.57;;;4.18;;
22646;SDS011;11490;42.726;23.268;2022-09-09T15:17:09;6.30;;;4.20;;
22646;SDS011;11490;42.726;23.268;2022-09-09T15:19:35;9.82;;;5.00;;
22646;SDS011;11490;42.726;23.268;2022-09-09T15:22:01;13.85;;;6.30;;
22646;SDS011;11490;42.726;23.268;2022-09-09T15:24:28;7.78;;;4.82;;
22646;SDS011;11490;42.726;23.268;2022-09-09T15:26:53;7.28;;;4.60;;
22646;SDS011;11490;42.726;23.268;2022-09-09T15:29:19;16.50;;;8.80;;
22646;SDS011;11490;42.726;23.268;2022-09-09T15:31:45;21.33;;;8.38;;
22646;SDS011;11490;42.726;23.268;2022-09-09T15:34:11;12.18;;;7.13;;
22646;SDS011;11490;42.726;23.268;2022-09-09T15:36:42;12.15;;;5.35;;
22646;SDS011;11490;42.726;23.268;2022-09-09T15:39:10;9.75;;;5.82;;
22646;SDS011;11490;42.726;23.268;2022-09-09T15:41:38;7.10;;;4.47;;
22646;SDS011;11490;42.726;23.268;2022-09-09T15:44:04;7.60;;;4.13;;
22646;SDS011;11490;42.726;23.268;2022-09-09T15:46:34;7.47;;;4.53;;
22646;SDS011;11490;42.726;23.268;2022-09-09T15:49:06;12.07;;;6.35;;
22646;SDS011;11490;42.726;23.268;2022-09-09T15:51:35;10.95;;;5.10;;
22646;SDS011;11490;42.726;23.268;2022-09-09T15:54:02;9.07;;;5.45;;
22646;SDS011;11490;42.726;23.268;2022-09-09T15:56:28;10.20;;;4.63;;
22646;SDS011;11490;42.726;23.268;2022-09-09T15:58:58;9.93;;;4.93;;
22646;SDS011;11490;42.726;23.268;2022-09-09T16:01:25;10.40;;;4.45;;
22646;SDS011;11490;42.726;23.268;2022-09-09T16:03:51;9.88;;;5.20;;
22646;SDS011;11490;42.726;23.268;2022-09-09T16:06:18;7.90;;;4.88;;
22646;SDS011;11490;42.726;23.268;2022-09-09T16:08:46;11.65;;;5.40;;
22646;SDS011;11490;42.726;23.268;2022-09-09T16:11:16;9.60;;;4.70;;
22646;SDS011;11490;42.726;23.268;2022-09-09T16:13:47;8.45;;;4.53;;
22646;SDS011;11490;42.726;23.268;2022-09-09T16:16:14;9.85;;;5.00;;
22646;SDS011;11490;42.726;23.268;2022-09-09T16:21:13;8.23;;;5.30;;
22646;SDS011;11490;42.726;23.268;2022-09-09T16:23:41;11.77;;;5.53;;
22646;SDS011;11490;42.726;23.268;2022-09-09T16:26:08;8.93;;;5.45;;
22646;SDS011;11490;42.726;23.268;2022-09-09T16:28:36;7.25;;;4.80;;
22646;SDS011;11490;42.726;23.268;2022-09-09T16:31:06;10.10;;;5.22;;
22646;SDS011;11490;42.726;23.268;2022-09-09T16:33:32;9.80;;;5.10;;
22646;SDS011;11490;42.726;23.268;2022-09-09T16:35:58;9.10;;;5.28;;
22646;SDS011;11490;42.726;23.268;2022-09-09T16:38:30;12.18;;;4.88;;
22646;SDS011;11490;42.726;23.268;2022-09-09T16:40:58;6.43;;;4.90;;
22646;SDS011;11490;42.726;23.268;2022-09-09T16:43:24;10.93;;;5.18;;
22646;SDS011;11490;42.726;23.268;2022-09-09T16:45:49;11.27;;;5.63;;
22646;SDS011;11490;42.726;23.268;2022-09-09T16:48:15;6.78;;;4.85;;
22646;SDS011;11490;42.726;23.268;2022-09-09T16:50:40;10.43;;;5.88;;
22646;SDS011;11490;42.726;23.268;2022-09-09T16:53:06;14.18;;;5.47;;
22646;SDS011;11490;42.726;23.268;2022-09-09T16:55:37;9.52;;;6.47;;
22646;SDS011;11490;42.726;23.268;2022-09-09T16:58:03;10.43;;;7.05;;
22646;SDS011;11490;42.726;23.268;2022-09-09T17:00:28;8.60;;;5.40;;
22646;SDS011;11490;42.726;23.268;2022-09-09T17:02:54;9.57;;;4.72;;
22646;SDS011;11490;42.726;23.268;2022-09-09T17:05:19;10.85;;;6.18;;
22646;SDS011;11490;42.726;23.268;2022-09-09T17:07:44;9.98;;;5.32;;
22646;SDS011;11490;42.726;23.268;2022-09-09T17:10:10;11.18;;;5.25;;
22646;SDS011;11490;42.726;23.268;2022-09-09T17:12:35;7.63;;;4.97;;
22646;SDS011;11490;42.726;23.268;2022-09-09T17:15:01;8.07;;;5.18;;